createdAt,value
2019-05-22T00:00:02.751Z,20.37
2019-05-22T00:02:35.816Z,22.17
2019-05-22T00:05:26.495Z,22.17
2019-05-22T00:07:54.621Z,19.15
2019-05-22T00:10:25.364Z,18.20
2019-05-22T00:12:54.173Z,17.12
2019-05-22T00:15:24.182Z,17.98
2019-05-22T00:17:53.637Z,18.02
2019-05-22T00:20:22.785Z,19.57
2019-05-22T00:22:52.113Z,19.27
2019-05-22T00:25:20.169Z,19.30
2019-05-22T00:27:49.599Z,19.48
2019-05-22T00:30:17.480Z,20.15
2019-05-22T00:32:46.745Z,18.87
2019-05-22T00:35:15.878Z,18.87
2019-05-22T00:37:43.405Z,21.40
2019-05-22T00:40:14.564Z,18.60
2019-05-22T00:42:44.502Z,21.45
2019-05-22T00:45:13.952Z,19.92
2019-05-22T00:47:41.700Z,26.42
2019-05-22T00:50:12.304Z,25.15
2019-05-22T00:52:49.069Z,25.77
2019-05-22T00:55:35.811Z,24.90
2019-05-22T00:58:07.801Z,20.27
2019-05-22T01:00:42.075Z,22.30
2019-05-22T01:03:13.831Z,21.35
2019-05-22T01:05:43.043Z,19.32
2019-05-22T01:08:15.343Z,19.62
2019-05-22T01:10:43.922Z,23.20
2019-05-22T01:13:14.629Z,20.70
2019-05-22T01:15:43.140Z,20.23
2019-05-22T01:18:11.955Z,18.40
2019-05-22T01:20:41.440Z,22.80
2019-05-22T01:23:13.317Z,22.07
2019-05-22T01:25:42.623Z,18.48
2019-05-22T01:28:10.181Z,20.57
2019-05-22T01:30:46.980Z,19.12
2019-05-22T01:33:20.286Z,17.92
2019-05-22T01:35:59.473Z,18.07
2019-05-22T01:38:27.006Z,19.27
2019-05-22T01:40:58.001Z,22.27
2019-05-22T01:43:27.664Z,15.68
2019-05-22T01:45:55.710Z,18.30
2019-05-22T01:48:30.459Z,17.00
2019-05-22T01:50:57.982Z,19.75
2019-05-22T01:53:37.096Z,17.52
2019-05-22T01:56:06.930Z,20.90
2019-05-22T01:58:36.032Z,19.77
2019-05-22T02:01:08.818Z,21.12
2019-05-22T02:03:38.687Z,19.00
2019-05-22T02:06:06.915Z,18.95
2019-05-22T02:08:40.962Z,19.42
2019-05-22T02:11:13.091Z,16.23
2019-05-22T02:13:48.122Z,18.12
2019-05-22T02:16:16.321Z,17.48
2019-05-22T02:18:47.265Z,17.50
2019-05-22T02:21:15.987Z,21.87
2019-05-22T02:23:43.789Z,19.50
2019-05-22T02:26:12.936Z,17.60
2019-05-22T02:28:41.377Z,18.92
2019-05-22T02:31:11.120Z,18.10
2019-05-22T02:33:58.840Z,19.00
2019-05-22T02:39:55.257Z,16.10
2019-05-22T02:42:28.057Z,18.05
2019-05-22T02:44:57.231Z,22.05
2019-05-22T02:47:26.376Z,17.75
2019-05-22T02:49:57.039Z,19.73
2019-05-22T02:52:26.145Z,17.62
2019-05-22T02:54:54.935Z,21.80
2019-05-22T02:57:23.902Z,18.12
2019-05-22T02:59:52.754Z,25.95
2019-05-22T03:02:20.372Z,20.68
2019-05-22T03:04:57.975Z,17.98
2019-05-22T03:07:26.237Z,21.15
2019-05-22T03:09:54.088Z,20.02
2019-05-22T03:12:23.731Z,18.67
2019-05-22T03:14:51.409Z,23.20
2019-05-22T03:17:29.886Z,22.48
2019-05-22T03:19:59.298Z,17.23
2019-05-22T03:22:34.425Z,19.48
2019-05-22T03:25:05.376Z,21.65
2019-05-22T03:27:38.137Z,18.30
2019-05-22T03:30:09.621Z,20.35
2019-05-22T03:32:43.337Z,18.07
2019-05-22T03:35:07.965Z,17.25
2019-05-22T03:37:36.184Z,18.10
2019-05-22T03:40:05.256Z,21.93
2019-05-22T03:42:33.780Z,20.12
2019-05-22T03:45:01.456Z,21.85
2019-05-22T03:47:29.339Z,18.98
2019-05-22T03:49:58.100Z,17.67
2019-05-22T03:52:25.892Z,18.12
2019-05-22T03:54:55.486Z,17.07
2019-05-22T03:57:23.764Z,19.98
2019-05-22T03:59:52.417Z,19.92
2019-05-22T04:02:20.001Z,17.90
2019-05-22T04:04:48.158Z,18.82
2019-05-22T04:07:21.068Z,18.70
2019-05-22T04:09:52.117Z,19.55
2019-05-22T04:12:20.669Z,18.27
2019-05-22T04:14:48.544Z,17.20
2019-05-22T04:17:16.938Z,17.07
2019-05-22T04:19:50.607Z,17.17
2019-05-22T04:22:14.561Z,18.65
2019-05-22T04:24:42.678Z,19.37
2019-05-22T04:27:11.343Z,22.40
2019-05-22T04:29:40.228Z,19.05
2019-05-22T04:32:17.964Z,20.12
2019-05-22T04:34:46.867Z,19.70
2019-05-22T04:37:15.732Z,20.23
2019-05-22T04:39:45.596Z,18.17
2019-05-22T04:42:16.657Z,20.95
2019-05-22T04:45:07.873Z,17.73
2019-05-22T04:47:36.371Z,19.30
2019-05-22T04:50:07.951Z,22.77
2019-05-22T04:52:35.290Z,19.25
2019-05-22T04:55:03.742Z,21.00
2019-05-22T04:57:31.285Z,17.23
2019-05-22T04:59:59.077Z,17.10
2019-05-22T05:02:28.999Z,18.00
2019-05-22T05:04:58.154Z,18.67
2019-05-22T05:07:26.903Z,22.00
2019-05-22T05:09:54.877Z,21.02
2019-05-22T05:12:22.791Z,21.37
2019-05-22T05:14:50.355Z,20.00
2019-05-22T05:17:17.998Z,19.82
2019-05-22T05:19:45.789Z,18.15
2019-05-22T05:22:19.753Z,22.87
2019-05-22T05:24:47.533Z,19.27
2019-05-22T05:27:15.040Z,21.75
2019-05-22T05:29:42.964Z,21.02
2019-05-22T05:32:11.326Z,20.45
2019-05-22T05:35:00.320Z,17.48
2019-05-22T05:37:28.123Z,19.42
2019-05-22T05:40:34.410Z,24.00
2019-05-22T05:43:04.803Z,19.70
2019-05-22T05:45:33.181Z,19.20
2019-05-22T05:48:03.239Z,20.95
2019-05-22T05:50:39.463Z,20.15
2019-05-22T05:53:03.069Z,18.60
2019-05-22T05:56:00.187Z,16.65
2019-05-22T05:58:28.870Z,19.10
2019-05-22T06:01:02.426Z,19.67
2019-05-22T06:03:37.163Z,23.02
2019-05-22T06:06:53.249Z,22.95
2019-05-22T06:09:21.957Z,19.62
2019-05-22T06:11:51.609Z,21.52
2019-05-22T06:14:21.852Z,18.32
2019-05-22T06:17:34.211Z,18.85
2019-05-22T06:20:06.830Z,19.40
2019-05-22T06:22:34.388Z,17.07
2019-05-22T06:25:03.476Z,19.70
2019-05-22T06:27:43.608Z,26.02
2019-05-22T06:30:16.523Z,17.27
2019-05-22T06:33:16.844Z,16.80
2019-05-22T06:35:47.644Z,18.55
2019-05-22T06:38:44.622Z,21.80
2019-05-22T06:41:13.135Z,22.05
2019-05-22T06:44:46.983Z,24.60
2019-05-22T06:47:23.385Z,18.70
2019-05-22T06:49:53.520Z,17.98
2019-05-22T06:52:21.900Z,18.00
2019-05-22T06:54:50.562Z,16.73
2019-05-22T06:57:22.229Z,16.17
2019-05-22T07:00:10.831Z,22.85
2019-05-22T07:02:22.870Z,21.33
2019-05-22T07:04:51.491Z,23.07
2019-05-22T07:07:21.084Z,28.27
2019-05-22T07:09:49.128Z,18.80
2019-05-22T07:12:20.036Z,21.60
2019-05-22T07:15:24.843Z,19.73
2019-05-22T07:17:54.540Z,17.40
2019-05-22T07:20:23.338Z,18.60
2019-05-22T07:22:51.466Z,17.40
2019-05-22T07:25:19.480Z,15.63
2019-05-22T07:27:48.448Z,12.20
2019-05-22T07:30:16.401Z,13.22
2019-05-22T07:32:44.514Z,14.98
2019-05-22T07:35:12.556Z,13.22
2019-05-22T07:37:42.810Z,13.28
2019-05-22T07:40:10.822Z,13.83
2019-05-22T07:42:38.722Z,16.95
2019-05-22T07:45:06.764Z,14.90
2019-05-22T07:47:35.826Z,15.93
2019-05-22T07:50:03.863Z,15.18
2019-05-22T07:52:32.183Z,15.55
2019-05-22T07:55:00.523Z,18.25
2019-05-22T07:57:29.394Z,15.68
2019-05-22T07:59:57.234Z,17.30
2019-05-22T08:02:29.356Z,21.93
2019-05-22T08:04:57.319Z,21.07
2019-05-22T08:07:27.823Z,19.62
2019-05-22T08:09:56.586Z,19.87
2019-05-22T08:12:24.858Z,19.77
2019-05-22T08:14:53.266Z,16.65
2019-05-22T08:17:21.163Z,17.32
2019-05-22T08:19:48.989Z,20.30
2019-05-22T08:22:17.131Z,19.25
2019-05-22T08:24:46.214Z,16.00
2019-05-22T08:27:15.547Z,17.85
2019-05-22T08:29:44.223Z,17.87
2019-05-22T08:32:11.864Z,18.70
2019-05-22T08:34:41.592Z,18.98
2019-05-22T08:37:13.264Z,17.77
2019-05-22T08:39:40.894Z,17.48
2019-05-22T08:42:13.294Z,17.50
2019-05-22T08:44:40.850Z,18.42
2019-05-22T08:47:08.674Z,18.40
2019-05-22T08:49:38.033Z,18.12
2019-05-22T08:52:22.554Z,14.93
2019-05-22T08:54:37.894Z,18.75
2019-05-22T08:57:08.433Z,16.87
2019-05-22T08:59:36.854Z,18.60
2019-05-22T09:02:07.799Z,14.93
2019-05-22T09:04:35.459Z,17.57
2019-05-22T09:07:03.327Z,19.05
2019-05-22T09:09:30.880Z,17.00
2019-05-22T09:11:59.495Z,16.55
2019-05-22T09:14:27.025Z,17.40
2019-05-22T09:16:55.648Z,12.90
2019-05-22T09:19:23.290Z,15.32
2019-05-22T09:21:51.125Z,13.83
2019-05-22T09:24:19.273Z,14.38
2019-05-22T09:26:47.113Z,15.40
2019-05-22T09:29:15.780Z,11.38
2019-05-22T09:31:43.302Z,17.65
2019-05-22T09:34:10.883Z,12.75
2019-05-22T09:36:38.724Z,17.25
2019-05-22T09:39:06.914Z,14.03
2019-05-22T09:41:35.124Z,14.78
2019-05-22T09:44:03.392Z,15.98
2019-05-22T09:46:32.160Z,17.37
2019-05-22T09:49:00.146Z,18.02
2019-05-22T09:51:27.736Z,15.70
2019-05-22T09:53:56.410Z,16.73
2019-05-22T09:56:25.530Z,20.55
2019-05-22T09:58:53.227Z,20.35
2019-05-22T10:01:20.808Z,17.50
2019-05-22T10:03:48.342Z,21.73
2019-05-22T10:06:16.075Z,18.32
2019-05-22T10:08:43.750Z,21.73
2019-05-22T10:11:11.254Z,20.12
2019-05-22T10:13:39.003Z,18.48
2019-05-22T10:16:07.041Z,22.02
2019-05-22T10:18:35.056Z,21.02
2019-05-22T10:21:03.036Z,26.35
2019-05-22T10:23:31.543Z,21.87
2019-05-22T10:25:59.112Z,23.27
2019-05-22T10:28:27.657Z,18.73
2019-05-22T10:30:57.182Z,23.00
2019-05-22T10:33:25.800Z,25.10
2019-05-22T10:35:53.362Z,22.35
2019-05-22T10:38:21.085Z,21.75
2019-05-22T10:40:48.983Z,18.85
2019-05-22T10:43:17.423Z,20.30
2019-05-22T10:45:46.439Z,17.23
2019-05-22T10:48:14.291Z,21.73
2019-05-22T10:50:42.020Z,23.60
2019-05-22T10:53:09.814Z,17.30
2019-05-22T10:55:38.546Z,18.32
2019-05-22T10:58:07.480Z,17.52
2019-05-22T11:00:35.594Z,19.42
2019-05-22T11:03:04.097Z,16.48
2019-05-22T11:05:31.840Z,18.35
2019-05-22T11:08:00.419Z,17.32
2019-05-22T11:10:28.765Z,18.40
2019-05-22T11:12:57.210Z,21.60
2019-05-22T11:15:25.607Z,19.40
2019-05-22T11:17:53.918Z,16.50
2019-05-22T11:20:23.011Z,17.73
2019-05-22T11:22:50.984Z,17.32
2019-05-22T11:25:19.780Z,15.63
2019-05-22T11:27:47.640Z,14.70
2019-05-22T11:30:16.326Z,16.60
2019-05-22T11:32:44.413Z,13.13
2019-05-22T11:35:13.783Z,14.83
2019-05-22T11:37:41.688Z,15.60
2019-05-22T11:40:09.773Z,15.08
2019-05-22T11:42:38.025Z,15.35
2019-05-22T11:45:07.803Z,13.10
2019-05-22T11:47:35.753Z,14.05
2019-05-22T11:50:03.908Z,14.60
2019-05-22T11:52:32.231Z,15.13
2019-05-22T11:55:00.714Z,14.15
2019-05-22T11:57:29.727Z,18.07
2019-05-22T11:59:57.782Z,14.78
2019-05-22T12:02:25.877Z,13.35
2019-05-22T12:04:53.710Z,15.50
2019-05-22T12:07:21.795Z,13.32
2019-05-22T12:09:49.747Z,18.92
2019-05-22T12:12:18.256Z,13.85
2019-05-22T12:14:45.772Z,13.50
2019-05-22T12:17:14.565Z,11.65
2019-05-22T12:19:42.363Z,16.05
2019-05-22T12:22:10.127Z,11.90
2019-05-22T12:24:38.748Z,12.58
2019-05-22T12:27:07.291Z,15.10
2019-05-22T12:29:35.170Z,10.93
2019-05-22T12:32:03.629Z,12.13
2019-05-22T12:34:31.577Z,9.98
2019-05-22T12:36:59.197Z,13.25
2019-05-22T12:39:27.450Z,16.00
2019-05-22T12:41:55.679Z,13.85
2019-05-22T12:44:25.275Z,9.90
2019-05-22T12:46:52.916Z,9.45
2019-05-22T12:49:20.506Z,9.45
2019-05-22T12:51:48.870Z,10.15
2019-05-22T12:54:16.546Z,11.70
2019-05-22T12:56:44.783Z,14.33
2019-05-22T12:59:13.585Z,8.63
2019-05-22T13:01:41.811Z,11.53
2019-05-22T13:04:09.963Z,9.90
2019-05-22T13:06:37.881Z,10.23
2019-05-22T13:09:09.081Z,8.10
2019-05-22T13:11:36.953Z,6.78
2019-05-22T13:14:05.056Z,7.30
2019-05-22T13:16:33.860Z,7.90
2019-05-22T13:19:01.965Z,6.05
2019-05-22T13:21:30.588Z,5.87
2019-05-22T13:24:00.733Z,5.70
2019-05-22T13:26:29.286Z,5.25
2019-05-22T13:28:57.039Z,5.40
2019-05-22T13:31:24.965Z,7.45
2019-05-22T13:33:52.606Z,5.75
2019-05-22T13:36:20.864Z,5.47
2019-05-22T13:38:48.699Z,7.05
2019-05-22T13:41:16.316Z,7.10
2019-05-22T13:43:44.295Z,5.15
2019-05-22T13:46:12.564Z,5.45
2019-05-22T13:48:40.101Z,6.25
2019-05-22T13:51:08.107Z,6.10
2019-05-22T13:53:36.573Z,10.38
2019-05-22T13:56:05.709Z,6.65
2019-05-22T13:58:33.738Z,6.85
2019-05-22T14:01:01.911Z,4.97
2019-05-22T14:03:29.775Z,4.55
2019-05-22T14:05:58.626Z,7.25
2019-05-22T14:08:26.282Z,6.47
2019-05-22T14:10:54.009Z,9.95
2019-05-22T14:13:26.136Z,10.00
2019-05-22T14:15:56.950Z,8.00
2019-05-22T14:18:24.698Z,6.70
2019-05-22T14:20:52.921Z,7.25
2019-05-22T14:23:20.709Z,7.58
2019-05-22T14:25:49.463Z,8.00
2019-05-22T14:28:18.757Z,5.92
2019-05-22T14:30:46.740Z,5.55
2019-05-22T14:33:14.548Z,5.85
2019-05-22T14:35:48.723Z,6.28
2019-05-22T14:38:12.705Z,8.20
2019-05-22T14:40:41.873Z,6.85
2019-05-22T14:43:10.142Z,9.48
2019-05-22T14:45:37.634Z,6.85
2019-05-22T14:48:05.951Z,10.18
2019-05-22T14:50:33.830Z,9.58
2019-05-22T14:53:02.406Z,8.60
2019-05-22T14:55:31.827Z,9.90
2019-05-22T14:58:01.072Z,10.25
2019-05-22T15:00:28.911Z,9.18
2019-05-22T15:02:58.833Z,7.55
2019-05-22T15:05:26.332Z,7.45
2019-05-22T15:07:54.191Z,10.63
2019-05-22T15:10:22.663Z,8.88
2019-05-22T15:12:50.681Z,8.25
2019-05-22T15:15:20.677Z,6.95
2019-05-22T15:17:48.272Z,8.13
2019-05-22T15:20:18.227Z,7.37
2019-05-22T15:22:46.109Z,5.20
2019-05-22T15:25:13.820Z,6.87
2019-05-22T15:27:42.164Z,5.83
2019-05-22T15:30:11.126Z,7.58
2019-05-22T15:32:38.711Z,4.92
2019-05-22T15:35:09.334Z,7.45
2019-05-22T15:37:37.919Z,4.53
2019-05-22T15:40:07.534Z,4.33
2019-05-22T15:42:39.945Z,4.75
2019-05-22T15:45:10.414Z,3.02
2019-05-22T15:47:53.724Z,3.02
2019-05-22T15:50:11.402Z,4.20
2019-05-22T15:52:42.820Z,5.58
2019-05-22T15:55:11.575Z,3.98
2019-05-22T15:57:40.720Z,5.30
2019-05-22T16:00:11.449Z,2.83
2019-05-22T16:02:40.490Z,6.87
2019-05-22T16:05:08.143Z,5.42
2019-05-22T16:07:39.149Z,5.55
2019-05-22T16:10:07.821Z,4.22
2019-05-22T16:12:36.004Z,3.00
2019-05-22T16:15:05.531Z,4.72
2019-05-22T16:17:35.012Z,5.55
2019-05-22T16:20:02.847Z,5.85
2019-05-22T16:22:31.342Z,4.62
2019-05-22T16:25:00.059Z,5.15
2019-05-22T16:27:29.551Z,4.55
2019-05-22T16:29:59.750Z,6.00
2019-05-22T16:32:27.669Z,2.50
2019-05-22T16:34:56.204Z,3.05
2019-05-22T16:37:23.880Z,2.30
2019-05-22T16:39:51.400Z,4.22
2019-05-22T16:42:19.964Z,4.08
2019-05-22T16:44:48.082Z,4.37
2019-05-22T16:47:18.308Z,3.17
2019-05-22T16:49:47.263Z,4.95
2019-05-22T16:52:16.220Z,3.75
2019-05-22T16:54:44.665Z,5.12
2019-05-22T16:57:12.870Z,5.92
2019-05-22T16:59:41.455Z,3.67
2019-05-22T17:02:11.514Z,3.75
2019-05-22T17:04:40.162Z,4.45
2019-05-22T17:07:07.692Z,4.50
2019-05-22T17:09:38.770Z,3.65
2019-05-22T17:12:09.144Z,5.03
2019-05-22T17:14:37.301Z,4.65
2019-05-22T17:17:06.802Z,3.37
2019-05-22T17:19:34.730Z,5.60
2019-05-22T17:22:03.184Z,4.30
2019-05-22T17:24:34.111Z,9.23
2019-05-22T17:27:01.726Z,8.55
2019-05-22T17:29:31.481Z,5.55
2019-05-22T17:31:59.636Z,6.22
2019-05-22T17:34:37.172Z,3.27
2019-05-22T17:37:13.213Z,4.55
2019-05-22T17:39:44.033Z,6.83
2019-05-22T17:42:15.289Z,4.45
2019-05-22T17:44:47.675Z,4.22
2019-05-22T17:47:17.092Z,3.70
2019-05-22T17:49:45.360Z,3.50
2019-05-22T17:52:16.640Z,4.30
2019-05-22T17:54:45.527Z,4.05
2019-05-22T17:57:15.076Z,4.37
2019-05-22T17:59:43.978Z,4.70
2019-05-22T18:02:16.890Z,7.03
2019-05-22T18:04:50.716Z,4.45
2019-05-22T18:07:19.619Z,5.17
2019-05-22T18:09:47.803Z,5.08
2019-05-22T18:12:16.820Z,5.42
2019-05-22T18:14:45.082Z,4.42
2019-05-22T18:17:13.100Z,5.05
2019-05-22T18:19:41.110Z,6.42
2019-05-22T18:22:09.392Z,4.80
2019-05-22T18:24:37.395Z,5.08
2019-05-22T18:27:05.728Z,5.72
2019-05-22T18:29:33.631Z,5.03
2019-05-22T18:32:02.017Z,6.30
2019-05-22T18:34:29.603Z,4.60
2019-05-22T18:36:57.266Z,5.00
2019-05-22T18:39:24.938Z,6.35
2019-05-22T18:41:53.088Z,4.72
2019-05-22T18:44:21.300Z,4.92
2019-05-22T18:46:49.169Z,6.40
2019-05-22T18:49:16.730Z,5.05
2019-05-22T18:51:45.007Z,5.30
2019-05-22T18:54:12.812Z,7.03
2019-05-22T18:56:40.648Z,7.10
2019-05-22T18:59:08.461Z,6.83
2019-05-22T19:01:35.878Z,7.05
2019-05-22T19:04:03.421Z,5.42
2019-05-22T19:06:31.226Z,6.50
2019-05-22T19:08:58.854Z,5.58
2019-05-22T19:11:26.553Z,6.70
2019-05-22T19:13:54.367Z,7.22
2019-05-22T19:16:23.013Z,6.75
2019-05-22T19:18:50.558Z,7.00
2019-05-22T19:21:18.400Z,6.55
2019-05-22T19:23:46.295Z,7.35
2019-05-22T19:26:14.179Z,7.28
2019-05-22T19:28:44.154Z,6.50
2019-05-22T19:31:11.834Z,4.97
2019-05-22T19:33:39.988Z,6.87
2019-05-22T19:36:08.471Z,5.40
2019-05-22T19:38:36.152Z,9.73
2019-05-22T19:41:04.601Z,7.75
2019-05-22T19:43:32.872Z,7.50
2019-05-22T19:46:01.119Z,7.17
2019-05-22T19:48:28.996Z,6.72
2019-05-22T19:50:57.436Z,7.15
2019-05-22T19:53:26.114Z,7.20
2019-05-22T19:55:54.014Z,8.00
2019-05-22T19:58:22.497Z,7.83
2019-05-22T20:00:50.704Z,7.03
2019-05-22T20:03:18.577Z,6.53
2019-05-22T20:05:46.953Z,8.65
2019-05-22T20:08:14.939Z,5.15
2019-05-22T20:10:43.848Z,7.42
2019-05-22T20:13:12.686Z,6.25
2019-05-22T20:15:41.814Z,6.37
2019-05-22T20:18:10.356Z,7.55
2019-05-22T20:20:38.839Z,8.40
2019-05-22T20:23:08.808Z,7.35
2019-05-22T20:25:39.277Z,7.67
2019-05-22T20:28:10.096Z,7.25
2019-05-22T20:30:39.182Z,7.92
2019-05-22T20:33:09.618Z,6.80
2019-05-22T20:35:37.675Z,8.40
2019-05-22T20:38:06.995Z,5.00
2019-05-22T20:40:36.777Z,7.00
2019-05-22T20:43:08.564Z,5.62
2019-05-22T20:45:44.830Z,11.12
2019-05-22T20:48:21.255Z,8.30
2019-05-22T20:50:50.422Z,7.15
2019-05-22T20:53:21.516Z,5.70
2019-05-22T20:55:50.542Z,6.47
2019-05-22T20:58:20.696Z,8.15
2019-05-22T21:00:51.127Z,6.87
2019-05-22T21:03:21.371Z,7.50
2019-05-22T21:05:50.837Z,9.53
2019-05-22T21:08:21.484Z,7.28
2019-05-22T21:10:50.921Z,8.40
2019-05-22T21:13:19.412Z,10.23
2019-05-22T21:15:50.351Z,7.78
2019-05-22T21:18:21.293Z,5.83
2019-05-22T21:20:55.019Z,8.60
2019-05-22T21:23:22.649Z,7.70
2019-05-22T21:25:51.259Z,8.20
2019-05-22T21:28:20.014Z,9.10
2019-05-22T21:30:51.522Z,9.60
2019-05-22T21:33:20.223Z,9.60
2019-05-22T21:35:49.134Z,8.48
2019-05-22T21:38:19.221Z,8.93
2019-05-22T21:40:51.160Z,10.63
2019-05-22T21:43:22.487Z,9.13
2019-05-22T21:45:50.840Z,8.85
2019-05-22T21:48:20.356Z,8.90
2019-05-22T21:50:49.198Z,11.22
2019-05-22T21:53:17.499Z,12.63
2019-05-22T21:55:46.257Z,8.18
2019-05-22T21:58:14.733Z,9.73
2019-05-22T22:01:10.904Z,7.95
2019-05-22T22:03:43.291Z,10.82
2019-05-22T22:06:12.029Z,9.70
2019-05-22T22:08:39.730Z,8.65
2019-05-22T22:11:08.282Z,10.25
2019-05-22T22:13:37.571Z,11.48
2019-05-22T22:16:05.929Z,7.58
2019-05-22T22:18:33.751Z,8.73
2019-05-22T22:21:01.607Z,10.25
2019-05-22T22:23:30.244Z,10.90
2019-05-22T22:25:58.184Z,7.97
2019-05-22T22:28:26.557Z,9.80
2019-05-22T22:30:56.383Z,9.75
2019-05-22T22:33:28.374Z,8.60
2019-05-22T22:35:56.445Z,8.40
2019-05-22T22:38:26.293Z,11.48
2019-05-22T22:40:55.048Z,8.35
2019-05-22T22:43:27.820Z,9.88
2019-05-22T22:46:04.120Z,8.98
2019-05-22T22:48:34.608Z,11.80
2019-05-22T22:51:06.027Z,9.43
2019-05-22T22:53:33.950Z,9.90
2019-05-22T22:56:01.875Z,9.38
2019-05-22T22:58:29.727Z,11.95
2019-05-22T23:00:59.739Z,10.58
2019-05-22T23:03:27.949Z,9.30
2019-05-22T23:05:57.425Z,9.00
2019-05-22T23:08:28.989Z,8.83
2019-05-22T23:10:57.068Z,11.60
2019-05-22T23:13:24.661Z,8.85
2019-05-22T23:15:52.901Z,8.53
2019-05-22T23:19:04.163Z,6.42
2019-05-22T23:21:32.688Z,7.30
2019-05-22T23:23:59.940Z,7.87
2019-05-22T23:26:28.171Z,6.80
2019-05-22T23:28:56.644Z,9.13
2019-05-22T23:31:24.236Z,8.33
2019-05-22T23:33:52.980Z,8.03
2019-05-22T23:36:21.526Z,9.35
2019-05-22T23:38:51.070Z,7.87
2019-05-22T23:41:20.078Z,9.30
2019-05-22T23:43:48.603Z,9.50
2019-05-22T23:46:16.422Z,8.58
2019-05-22T23:48:44.593Z,7.53
2019-05-22T23:51:12.317Z,9.13
2019-05-22T23:53:41.527Z,8.40
2019-05-22T23:56:10.290Z,8.10
2019-05-22T23:58:52.073Z,9.28
